Angelo Coast Range Reserve, California Weather observations

Data are for 10 minute period ending at time listed.
 Day   Time   Solar   Ave.   Ave.  Ave.  Vector  Max.   Baro.   Total    
  of    of     Rad.   Air    Rel.  Wind   Wind   Wind  Press.  Precip.   
Year   Day            Temp.  Hum.  Speed  Dir.   Gust                    
2017   (PST)  Kw/m2    F      %     mph   deg.    mph    mb.     in.     
-------------------------------------------------------------------------
  53   21:50   0.00   33.1    99    0.5    41     1.5   972.7    0.00 
  53   22:00   0.00   33.1    99    0.2    26     0.9   972.6    0.00 
  53   22:10   0.00   32.8    99    0.2    52     1.2   972.6    0.00 
  53   22:20   0.00   32.7    99    0.2    39     1.3   972.6    0.00 
  53   22:30   0.00   32.6    99    0.1    36     1.4   972.7    0.00 
  53   22:40   0.00   32.2    99    0.5    33     1.3   972.6    0.00 
  53   22:50   0.00   32.1    99    0.7    41     2.2   972.6    0.00 
  53   23:00   0.00   32.1    99    0.3   360     1.1   972.6    0.00 
  53   23:10   0.00   32.0   100    1.0    23     2.3   972.6    0.00 
  53   23:20   0.00   31.8   100    0.6    31     1.8   972.5    0.00 
  53   23:30   0.00   31.7   100    0.4    58     1.0   972.6    0.00 
  53   23:40   0.00   31.6   100    0.2    25     1.2   972.5    0.01 
  53   23:50   0.00   31.4   100    0.1    46     0.8   972.5    0.00 
  54    0:00   0.00   31.3   100    0.0     0     0.0   972.5    0.00 
  54    0:10   0.00   31.4   100    0.0     0     0.0   972.5    0.00 
  54    0:20   0.00   31.3   100    0.1    92     0.7   972.6    0.00 
  54    0:30   0.00   31.2   100    0.0     0     0.6   972.6    0.00 
  54    0:40   0.00   31.4   100    0.0     0     0.0   972.6    0.00 
  54    0:50   0.00   31.4   100    0.2    20     1.1   972.4    0.00 
  54    1:00   0.00   31.3   100    0.4    52     1.5   972.3    0.00 
  54    1:10   0.00   31.3   100    0.1   358     1.0   972.3    0.00 
  54    1:20   0.00   31.2   100    0.0     0     0.0   972.3    0.00 
  54    1:30   0.00   31.0   100    0.0     0     0.0   972.2    0.00 
  54    1:40   0.00   30.9   100    0.4    49     1.3   972.1    0.00 
  54    1:50   0.00   30.8   100    1.0    38     2.4   972.2    0.00 
  54    2:00   0.00   30.8   100    0.3   113     2.1   972.1    0.00 
  54    2:10   0.00   30.8   100    0.4    18     1.2   972.0    0.00 
  54    2:20   0.00   30.8   100    0.7    13     1.9   972.0    0.00 
  54    2:30   0.00   30.7   100    1.6    39     2.9   971.9    0.00 
  54    2:40   0.00   30.7   100    1.0    45     2.9   971.9    0.00 
  54    2:50   0.00   30.7   100    0.2    31     1.1   971.9    0.00 
  54    3:00   0.00   30.7   100    0.0   155     0.6   971.9    0.00 
  54    3:10   0.00   30.6   100    0.2    45     1.2   971.8    0.00 
  54    3:20   0.00   30.6   100    0.4    31     1.8   971.9    0.00 
  54    3:30   0.00   30.5   100    0.2    52     1.4   972.0    0.00 
  54    3:40   0.00   30.6   100    0.0     0     0.0   972.0    0.00 
  54    3:50   0.00   30.6   100    0.0   100     0.7   972.0    0.00 
  54    4:00   0.00   30.5   100    0.2   321     1.4   972.1    0.00 
  54    4:10   0.00   30.4   100    0.4    32     1.8   972.1    0.00 
  54    4:20   0.00   30.4   100    0.4    71     2.0   972.1    0.00 
  54    4:30   0.00   30.4   100    0.5    49     1.8   972.1    0.00 
  54    4:40   0.00   30.3   100    0.7   346     1.7   972.1    0.00 
  54    4:50   0.00   30.2   100    0.6    40     1.8   972.1    0.00 
  54    5:00   0.00   30.1   100    1.1    67     1.9   972.1    0.00 
  54    5:10   0.00   30.2   100    0.4    55     1.8   972.1    0.00 
  54    5:20   0.00   30.1   100    0.6    66     1.5   972.0    0.00 
  54    5:30   0.00   30.1   100    0.9    35     1.9   972.0    0.00 
  54    5:40   0.00   29.9   100    1.1    43     1.9   972.1    0.00 
  54    5:50   0.00   29.9   100    0.7    13     1.6   972.1    0.00 
  54    6:00   0.00   29.8   100    0.3   351     1.2   972.1    0.00 
  54    6:10   0.00   29.7   100    0.6   326     1.8   972.0    0.00 
  54    6:20   0.00   29.6   100    0.5    90     1.6   972.1    0.00 
  54    6:30   0.00   29.7   100    0.4   100     1.7   972.2    0.00 
  54    6:40   0.00   29.8   100    0.5   137     2.3   972.3    0.00 
  54    6:50   0.00   29.7   100    0.1   114     1.0   972.4    0.00 
  54    7:00   0.00   29.8   100    0.2    21     1.5   972.5    0.00 
  54    7:10   0.00   29.8   100    0.4   119     1.5   972.5    0.00 
  54    7:20   0.01   29.7   100    1.3   150     2.5   972.6    0.00 
  54    7:30   0.01   29.8   100    0.2   119     0.9   972.6    0.00 
  54    7:40   0.01   30.1   100    0.1    18     1.5   972.7    0.00 
  54    7:50   0.01   30.2   100    0.6    55     2.0   972.8    0.00 
  54    8:00   0.01   30.2   100    0.7   156     1.6   972.9    0.00 
  54    8:10   0.02   30.2   100    1.4   326     2.9   973.1    0.00 
  54    8:20   0.05   30.1   100    0.8   323     1.9   973.2    0.00 
  54    8:30   0.05   30.3   100    0.3   295     1.5   973.2    0.00 
  54    8:40   0.04   30.4   100    0.0   175     0.4   973.2    0.00 
  54    8:50   0.04   30.6   100    0.4    72     1.7   973.3    0.00 
  54    9:00   0.03   30.5    99    0.5    82     1.2   973.2    0.00 
  54    9:10   0.03   30.4    99    1.3    54     2.0   973.0    0.00 
  54    9:20   0.03   30.6    99    2.1    78     3.3   973.0    0.00 
  54    9:30   0.06   31.3    99    0.1   113     0.9   973.1    0.00 
  54    9:40   0.11   32.1    99    0.0     0     0.0   973.1    0.00 
  54    9:50   0.43   33.4    98    1.2   100     2.0   973.2    0.00 
  54   10:00   0.50   35.0    94    1.5    93     1.9   973.3    0.00 
  54   10:10   0.53   35.6    91    1.7    92     2.2   973.3    0.00 
  54   10:20   0.55   36.1    90    1.6   103     2.4   973.4    0.00 
  54   10:30   0.57   36.6    90    2.0   103     2.4   973.4    0.00 
  54   10:40   0.60   37.1    88    1.6   101     2.0   973.4    0.00 
  54   10:50   0.64   37.9    85    1.5    93     2.5   973.4    0.00 
  54   11:00   0.71   37.9    87    1.6   122     2.2   973.3    0.00 
  54   11:10   0.72   38.4    88    1.2    94     2.3   973.2    0.00 
  54   11:20   0.60   39.5    82    1.4    72     3.9   973.2    0.00 
  54   11:30   0.72   40.2    82    1.3   117     2.9   973.3    0.00 
  54   11:40   0.72   40.1    80    1.7    92     4.2   973.2    0.00 
  54   11:50   0.70   41.0    80    1.8    55     6.9   973.0    0.00 
  54   12:00   0.54   41.3    66    2.5    68     6.3   972.9    0.00 
  54   12:10   0.66   41.1    70    2.3    66     7.3   972.7    0.00 
  54   12:20   0.72   42.9    71    2.8   323     7.2   972.6    0.00 
  54   12:30   0.72   44.1    62    1.9   332     6.2   972.5    0.00 
  54   12:40   0.73   44.2    63    2.3    26     6.0   972.3    0.00 
  54   12:50   0.72   44.1    62    2.7    37     8.5   972.1    0.00 
  54   13:00   0.73   43.6    63    2.3    26     5.6   972.0    0.00 
  54   13:10   0.72   44.2    64    1.4   129     3.7   972.0    0.00 
  54   13:20   0.67   45.1    63    2.5     4     8.0   971.9    0.00 
  54   13:30   0.73   45.1    58    1.8   358     6.1   971.7    0.00 
  54   13:40   0.72   45.2    59    2.3   314     5.8   971.6    0.00 
  54   13:50   0.64   45.3    62    1.6    96     7.1   971.5    0.00 
  54   14:00   0.37   44.7    68    1.2   313     3.5   971.4    0.00 
  54   14:10   0.39   44.2    62    2.2    26     4.7   971.4    0.00 
  54   14:20   0.62   44.7    62    2.0     9     6.6   971.3    0.00 
  54   14:30   0.61   45.2    61    2.2     8     6.8   971.2    0.00 
  54   14:40   0.58   44.3    64    1.6   321     4.3   971.2    0.00 
  54   14:50   0.34   44.4    60    1.6     9     5.4   971.2    0.00 
  54   15:00   0.42   44.2    62    2.2     4     6.6   971.2    0.00 
  54   15:10   0.40   44.1    65    2.0    18     4.9   971.2    0.00 
  54   15:20   0.12   43.1    65    1.3    36     3.7   971.3    0.00 
  54   15:30   0.05   41.1    76    0.7   317     3.9   971.4    0.00 
  54   15:40   0.05   40.5    71    1.7    17     6.2   971.5    0.00 
  54   15:50   0.04   41.7    64    2.6    32     7.2   971.5    0.00 
  54   16:00   0.04   41.6    63    1.9    19     6.3   971.5    0.00 
  54   16:10   0.05   40.7    72    0.9   258     2.3   971.5    0.00 
  54   16:20   0.04   40.0    76    1.0   158     3.1   971.5    0.00 
  54   16:30   0.03   40.8    69    1.4    45     6.0   971.5    0.00 
  54   16:40   0.03   39.8    77    0.7   248     3.0   971.5    0.00 
  54   16:50   0.02   39.3    79    0.9   305     2.2   971.5    0.00 
  54   17:00   0.01   39.5    74    0.9    57     4.0   971.4    0.00 
  54   17:10   0.01   39.1    79    0.8    31     3.2   971.4    0.00 
  54   17:20   0.01   38.5    82    0.3   298     1.2   971.5    0.00 
  54   17:30   0.01   38.0    86    0.1   328     0.7   971.6    0.00 
  54   17:40   0.01   37.4    87    0.1   346     0.7   971.7    0.00 
  54   17:50   0.01   37.0    89    0.0     0     0.0   971.7    0.00 
  54   18:00   0.00   36.7    90    0.0     0     0.0   971.8    0.00 
  54   18:10   0.00   36.3    92    0.1   153     0.9   971.8    0.00 
  54   18:20   0.00   35.8    93    0.4   168     1.3   971.9    0.00 
  54   18:30   0.00   35.2    94    0.1   155     1.4   971.8    0.00 
  54   18:40   0.00   34.7    96    0.3   161     1.7   971.8    0.00 
  54   18:50   0.00   34.3    96    0.3   168     1.7   971.9    0.00 
  54   19:00   0.00   33.9    97    0.2   141     1.2   971.9    0.00 
  54   19:10   0.00   33.7    97    0.0   172     1.2   972.1    0.00 
  54   19:20   0.00   33.4    97    0.7   167     1.8   972.2    0.00 
  54   19:30   0.00   33.2    98    0.6   158     1.8   972.1    0.00 
  54   19:40   0.00   32.9    98    0.0   175     0.5   972.1    0.00 
  54   19:50   0.00   32.5    98    0.6   158     2.2   972.2    0.00 
  54   20:00   0.00   32.2    98    1.0   160     2.0   972.2    0.00 
  54   20:10   0.00   32.0    98    0.0    15     0.4   972.3    0.00 
  54   20:20   0.00   31.8    98    0.1     2     0.7   972.3    0.00 
  54   20:30   0.00   31.6    98    0.2    27     0.8   972.3    0.00 
  54   20:40   0.00   31.5    98    0.3    59     1.2   972.3    0.00 
  54   20:50   0.00   31.4    98    0.3    37     1.7   972.3    0.00 
  54   21:00   0.00   31.2    99    0.2    29     0.7   972.4    0.00 
  54   21:10   0.00   30.8    99    0.2    25     1.2   972.5    0.00 
  54   21:20   0.00   30.7    99    0.4    38     1.5   972.6    0.00 
  54   21:30   0.00   30.8    99    0.3    66     1.2   972.6    0.00 
  54   21:40   0.00   31.2   100    0.3    83     1.2   972.7    0.00 

Return to Angelo Coast Range Reserve graphs page.


Western Regional Climate Center,wrcc@dri.edu